sensor_id;sensor_type;location;lat;lon;timestamp;pressure;altitude;pressure_sealevel;temperature;humidity
41467;BME280;27205;53.690;19.948;2023-03-21T00:00:07;99735.00;;;7.65;100.00
41467;BME280;27205;53.690;19.948;2023-03-21T00:05:30;99733.96;;;7.66;100.00
41467;BME280;27205;53.690;19.948;2023-03-21T00:10:34;99727.61;;;7.62;100.00
41467;BME280;27205;53.690;19.948;2023-03-21T00:15:45;99726.78;;;7.58;100.00
41467;BME280;27205;53.690;19.948;2023-03-21T00:21:19;99717.38;;;7.62;100.00
41467;BME280;27205;53.690;19.948;2023-03-21T00:26:43;99714.95;;;7.56;100.00
41467;BME280;27205;53.690;19.948;2023-03-21T00:31:47;99712.52;;;7.47;100.00
41467;BME280;27205;53.690;19.948;2023-03-21T00:36:50;99709.23;;;7.41;100.00
41467;BME280;27205;53.690;19.948;2023-03-21T00:41:54;99712.69;;;7.48;100.00
41467;BME280;27205;53.690;19.948;2023-03-21T00:46:57;99714.58;;;7.48;100.00
41467;BME280;27205;53.690;19.948;2023-03-21T00:52:09;99711.27;;;7.39;100.00
41467;BME280;27205;53.690;19.948;2023-03-21T00:57:32;99710.31;;;7.42;100.00
41467;BME280;27205;53.690;19.948;2023-03-21T01:02:41;99711.19;;;7.43;100.00
41467;BME280;27205;53.690;19.948;2023-03-21T01:08:19;99708.06;;;7.43;100.00
41467;BME280;27205;53.690;19.948;2023-03-21T01:13:31;99708.45;;;7.43;100.00
41467;BME280;27205;53.690;19.948;2023-03-21T01:18:39;99697.45;;;7.42;100.00
41467;BME280;27205;53.690;19.948;2023-03-21T01:23:43;99699.40;;;7.39;100.00
41467;BME280;27205;53.690;19.948;2023-03-21T01:28:47;99703.50;;;7.36;100.00
41467;BME280;27205;53.690;19.948;2023-03-21T01:33:51;99701.13;;;7.31;100.00
41467;BME280;27205;53.690;19.948;2023-03-21T01:38:54;99701.28;;;7.27;100.00
41467;BME280;27205;53.690;19.948;2023-03-21T01:43:58;99705.49;;;7.28;100.00
41467;BME280;27205;53.690;19.948;2023-03-21T01:54:33;99702.48;;;7.40;100.00
41467;BME280;27205;53.690;19.948;2023-03-21T01:59:44;99696.88;;;7.42;100.00
41467;BME280;27205;53.690;19.948;2023-03-21T02:04:49;99694.35;;;7.38;100.00
41467;BME280;27205;53.690;19.948;2023-03-21T02:09:58;99689.70;;;7.33;100.00
41467;BME280;27205;53.690;19.948;2023-03-21T02:15:02;99686.60;;;7.30;100.00
41467;BME280;27205;53.690;19.948;2023-03-21T02:25:49;99688.55;;;7.32;100.00
41467;BME280;27205;53.690;19.948;2023-03-21T02:42:10;99700.79;;;7.43;100.00
41467;BME280;27205;53.690;19.948;2023-03-21T02:47:27;99702.80;;;7.47;100.00
41467;BME280;27205;53.690;19.948;2023-03-21T02:52:34;99704.55;;;7.44;100.00
41467;BME280;27205;53.690;19.948;2023-03-21T02:57:42;99700.36;;;7.47;100.00
41467;BME280;27205;53.690;19.948;2023-03-21T03:02:48;99701.13;;;7.50;100.00
41467;BME280;27205;53.690;19.948;2023-03-21T03:08:22;99700.02;;;7.52;100.00
41467;BME280;27205;53.690;19.948;2023-03-21T03:19:31;99705.44;;;7.42;100.00
41467;BME280;27205;53.690;19.948;2023-03-21T03:25:06;99709.58;;;7.44;100.00
41467;BME280;27205;53.690;19.948;2023-03-21T03:30:27;99711.45;;;7.39;100.00
41467;BME280;27205;53.690;19.948;2023-03-21T03:35:44;99709.40;;;7.45;100.00
41467;BME280;27205;53.690;19.948;2023-03-21T03:41:18;99708.30;;;7.46;100.00
41467;BME280;27205;53.690;19.948;2023-03-21T03:46:33;99708.45;;;7.50;100.00
41467;BME280;27205;53.690;19.948;2023-03-21T03:51:50;99715.48;;;7.45;100.00
41467;BME280;27205;53.690;19.948;2023-03-21T03:56:55;99720.69;;;7.42;100.00
41467;BME280;27205;53.690;19.948;2023-03-21T04:01:59;99718.86;;;7.48;100.00
41467;BME280;27205;53.690;19.948;2023-03-21T04:07:03;99719.35;;;7.48;100.00
41467;BME280;27205;53.690;19.948;2023-03-21T04:12:08;99720.88;;;7.47;100.00
41467;BME280;27205;53.690;19.948;2023-03-21T04:17:11;99727.02;;;7.44;100.00
41467;BME280;27205;53.690;19.948;2023-03-21T04:22:15;99716.81;;;7.43;100.00
41467;BME280;27205;53.690;19.948;2023-03-21T04:27:19;99719.42;;;7.43;100.00
41467;BME280;27205;53.690;19.948;2023-03-21T04:32:22;99716.73;;;7.43;100.00
41467;BME280;27205;53.690;19.948;2023-03-21T04:37:27;99721.09;;;7.48;100.00
41467;BME280;27205;53.690;19.948;2023-03-21T04:42:32;99721.84;;;7.43;100.00
41467;BME280;27205;53.690;19.948;2023-03-21T04:47:36;99722.27;;;7.40;100.00
41467;BME280;27205;53.690;19.948;2023-03-21T04:52:40;99722.80;;;7.38;100.00
41467;BME280;27205;53.690;19.948;2023-03-21T04:57:43;99729.66;;;7.41;100.00
41467;BME280;27205;53.690;19.948;2023-03-21T05:02:47;99731.84;;;7.42;100.00
41467;BME280;27205;53.690;19.948;2023-03-21T05:07:50;99729.98;;;7.43;100.00
41467;BME280;27205;53.690;19.948;2023-03-21T05:12:54;99730.32;;;7.46;100.00
41467;BME280;27205;53.690;19.948;2023-03-21T05:17:57;99725.71;;;7.38;100.00
41467;BME280;27205;53.690;19.948;2023-03-21T05:23:01;99729.63;;;7.38;100.00
41467;BME280;27205;53.690;19.948;2023-03-21T05:28:06;99731.52;;;7.42;100.00
41467;BME280;27205;53.690;19.948;2023-03-21T05:33:10;99740.41;;;7.42;100.00
41467;BME280;27205;53.690;19.948;2023-03-21T05:38:13;99742.34;;;7.47;100.00
41467;BME280;27205;53.690;19.948;2023-03-21T05:43:17;99743.09;;;7.50;100.00
41467;BME280;27205;53.690;19.948;2023-03-21T05:48:20;99747.14;;;7.54;100.00
41467;BME280;27205;53.690;19.948;2023-03-21T05:53:24;99756.15;;;7.57;100.00
41467;BME280;27205;53.690;19.948;2023-03-21T05:58:28;99757.39;;;7.64;100.00
41467;BME280;27205;53.690;19.948;2023-03-21T06:03:31;99758.75;;;7.69;100.00
41467;BME280;27205;53.690;19.948;2023-03-21T06:08:34;99762.28;;;7.77;100.00
41467;BME280;27205;53.690;19.948;2023-03-21T06:13:38;99772.80;;;7.80;100.00
41467;BME280;27205;53.690;19.948;2023-03-21T06:18:41;99777.23;;;7.87;100.00
41467;BME280;27205;53.690;19.948;2023-03-21T06:23:45;99779.48;;;7.89;100.00
41467;BME280;27205;53.690;19.948;2023-03-21T06:28:49;99786.70;;;7.94;100.00
41467;BME280;27205;53.690;19.948;2023-03-21T06:33:53;99793.52;;;7.93;100.00
41467;BME280;27205;53.690;19.948;2023-03-21T06:38:56;99798.38;;;7.92;100.00
41467;BME280;27205;53.690;19.948;2023-03-21T06:44:00;99800.35;;;7.86;100.00
41467;BME280;27205;53.690;19.948;2023-03-21T06:49:04;99801.45;;;7.85;100.00
41467;BME280;27205;53.690;19.948;2023-03-21T06:54:08;99804.75;;;7.82;100.00
41467;BME280;27205;53.690;19.948;2023-03-21T06:59:11;99816.34;;;7.79;100.00
41467;BME280;27205;53.690;19.948;2023-03-21T07:04:15;99816.58;;;7.77;100.00
41467;BME280;27205;53.690;19.948;2023-03-21T07:09:18;99820.22;;;7.73;100.00
41467;BME280;27205;53.690;19.948;2023-03-21T07:14:26;99820.64;;;7.73;100.00
41467;BME280;27205;53.690;19.948;2023-03-21T07:19:30;99829.88;;;7.74;100.00
41467;BME280;27205;53.690;19.948;2023-03-21T07:24:34;99836.89;;;7.65;100.00
41467;BME280;27205;53.690;19.948;2023-03-21T07:29:37;99842.82;;;7.56;100.00
41467;BME280;27205;53.690;19.948;2023-03-21T07:34:41;99840.91;;;7.43;100.00
41467;BME280;27205;53.690;19.948;2023-03-21T07:39:44;99849.22;;;7.44;100.00
41467;BME280;27205;53.690;19.948;2023-03-21T07:44:48;99852.96;;;7.57;100.00
41467;BME280;27205;53.690;19.948;2023-03-21T07:49:53;99855.13;;;7.67;100.00
41467;BME280;27205;53.690;19.948;2023-03-21T07:54:56;99856.08;;;7.80;100.00
41467;BME280;27205;53.690;19.948;2023-03-21T07:59:59;99857.47;;;7.86;100.00
41467;BME280;27205;53.690;19.948;2023-03-21T08:05:03;99856.48;;;7.84;100.00
41467;BME280;27205;53.690;19.948;2023-03-21T08:10:08;99864.20;;;7.96;100.00
41467;BME280;27205;53.690;19.948;2023-03-21T08:15:13;99862.58;;;8.18;100.00
41467;BME280;27205;53.690;19.948;2023-03-21T08:20:21;99874.30;;;8.27;100.00
41467;BME280;27205;53.690;19.948;2023-03-21T08:25:25;99878.48;;;8.23;100.00
41467;BME280;27205;53.690;19.948;2023-03-21T08:30:29;99884.34;;;8.27;100.00
41467;BME280;27205;53.690;19.948;2023-03-21T08:35:32;99881.98;;;8.40;100.00
41467;BME280;27205;53.690;19.948;2023-03-21T08:40:36;99892.54;;;8.64;100.00
41467;BME280;27205;53.690;19.948;2023-03-21T08:45:40;99896.17;;;8.67;100.00
41467;BME280;27205;53.690;19.948;2023-03-21T08:50:44;99896.69;;;8.66;100.00
41467;BME280;27205;53.690;19.948;2023-03-21T08:55:48;99904.67;;;8.80;100.00
41467;BME280;27205;53.690;19.948;2023-03-21T09:00:51;99913.32;;;8.86;100.00
41467;BME280;27205;53.690;19.948;2023-03-21T09:05:55;99914.59;;;8.78;100.00
41467;BME280;27205;53.690;19.948;2023-03-21T09:11:00;99918.01;;;8.65;100.00
41467;BME280;27205;53.690;19.948;2023-03-21T09:16:04;99923.08;;;8.92;100.00
41467;BME280;27205;53.690;19.948;2023-03-21T09:21:08;99928.65;;;9.12;100.00
41467;BME280;27205;53.690;19.948;2023-03-21T09:26:17;99937.36;;;9.22;100.00
41467;BME280;27205;53.690;19.948;2023-03-21T09:31:21;99938.30;;;9.22;100.00
41467;BME280;27205;53.690;19.948;2023-03-21T09:36:25;99943.56;;;9.36;100.00
41467;BME280;27205;53.690;19.948;2023-03-21T09:47:27;99954.05;;;9.70;100.00
41467;BME280;27205;53.690;19.948;2023-03-21T09:52:45;99959.24;;;9.83;100.00
41467;BME280;27205;53.690;19.948;2023-03-21T09:58:36;99959.24;;;9.85;100.00
41467;BME280;27205;53.690;19.948;2023-03-21T10:03:39;99959.00;;;9.87;100.00
41467;BME280;27205;53.690;19.948;2023-03-21T10:08:46;99957.06;;;10.08;100.00
41467;BME280;27205;53.690;19.948;2023-03-21T10:13:57;99965.80;;;10.27;100.00
41467;BME280;27205;53.690;19.948;2023-03-21T10:19:06;99970.88;;;10.39;100.00
41467;BME280;27205;53.690;19.948;2023-03-21T10:24:18;99977.65;;;10.49;100.00
41467;BME280;27205;53.690;19.948;2023-03-21T10:29:31;99975.88;;;10.50;100.00
41467;BME280;27205;53.690;19.948;2023-03-21T10:34:48;99980.15;;;10.51;100.00
41467;BME280;27205;53.690;19.948;2023-03-21T10:39:54;99981.31;;;10.72;100.00
41467;BME280;27205;53.690;19.948;2023-03-21T10:44:57;99983.58;;;10.82;100.00
41467;BME280;27205;53.690;19.948;2023-03-21T10:50:10;99979.39;;;10.76;100.00
41467;BME280;27205;53.690;19.948;2023-03-21T10:55:28;99971.61;;;10.73;100.00
41467;BME280;27205;53.690;19.948;2023-03-21T11:00:39;99978.30;;;10.71;100.00
41467;BME280;27205;53.690;19.948;2023-03-21T11:05:43;99976.13;;;10.52;100.00
41467;BME280;27205;53.690;19.948;2023-03-21T11:16:17;99965.94;;;10.90;100.00
41467;BME280;27205;53.690;19.948;2023-03-21T11:21:21;99962.16;;;11.24;100.00
41467;BME280;27205;53.690;19.948;2023-03-21T11:26:35;99965.16;;;11.27;100.00
41467;BME280;27205;53.690;19.948;2023-03-21T11:31:40;99963.73;;;11.12;100.00
41467;BME280;27205;53.690;19.948;2023-03-21T11:36:49;99967.47;;;11.13;100.00
41467;BME280;27205;53.690;19.948;2023-03-21T11:41:53;99968.90;;;11.26;100.00
41467;BME280;27205;53.690;19.948;2023-03-21T11:46:57;99970.13;;;11.44;99.99
41467;BME280;27205;53.690;19.948;2023-03-21T11:52:17;99963.70;;;11.49;100.00
41467;BME280;27205;53.690;19.948;2023-03-21T12:02:46;99962.42;;;11.57;100.00
41467;BME280;27205;53.690;19.948;2023-03-21T12:13:45;99974.05;;;11.44;100.00
41467;BME280;27205;53.690;19.948;2023-03-21T12:19:15;99975.38;;;11.43;100.00
41467;BME280;27205;53.690;19.948;2023-03-21T12:24:32;99976.61;;;11.25;99.97
41467;BME280;27205;53.690;19.948;2023-03-21T12:35:28;99976.95;;;11.23;100.00
41467;BME280;27205;53.690;19.948;2023-03-21T12:45:57;99975.51;;;11.15;99.52
41467;BME280;27205;53.690;19.948;2023-03-21T12:51:06;99972.57;;;11.15;97.33
41467;BME280;27205;53.690;19.948;2023-03-21T12:56:17;99972.61;;;11.20;95.30
41467;BME280;27205;53.690;19.948;2023-03-21T13:01:23;99973.42;;;11.32;94.94
41467;BME280;27205;53.690;19.948;2023-03-21T13:06:28;99972.84;;;11.32;93.75
41467;BME280;27205;53.690;19.948;2023-03-21T13:11:32;99967.93;;;11.46;92.60
41467;BME280;27205;53.690;19.948;2023-03-21T13:16:47;99963.17;;;11.60;93.76
41467;BME280;27205;53.690;19.948;2023-03-21T13:27:31;99957.33;;;12.28;94.73
41467;BME280;27205;53.690;19.948;2023-03-21T13:37:49;99954.13;;;12.43;92.81
41467;BME280;27205;53.690;19.948;2023-03-21T13:42:55;99951.85;;;12.42;91.87
41467;BME280;27205;53.690;19.948;2023-03-21T13:48:12;99950.73;;;12.68;93.51
41467;BME280;27205;53.690;19.948;2023-03-21T14:03:49;99926.27;;;13.34;93.88
41467;BME280;27205;53.690;19.948;2023-03-21T14:08:59;99926.33;;;13.62;91.61
41467;BME280;27205;53.690;19.948;2023-03-21T14:14:04;99922.83;;;13.83;91.56
41467;BME280;27205;53.690;19.948;2023-03-21T14:19:10;99925.60;;;14.11;91.34
41467;BME280;27205;53.690;19.948;2023-03-21T14:24:16;99926.65;;;14.31;90.71
41467;BME280;27205;53.690;19.948;2023-03-21T14:29:33;99925.38;;;14.56;93.11
41467;BME280;27205;53.690;19.948;2023-03-21T14:34:37;99921.84;;;14.46;89.24
41467;BME280;27205;53.690;19.948;2023-03-21T14:39:40;99914.92;;;13.96;88.15
41467;BME280;27205;53.690;19.948;2023-03-21T14:44:48;99913.83;;;14.12;90.91
41467;BME280;27205;53.690;19.948;2023-03-21T14:49:59;99914.57;;;16.26;86.59
41467;BME280;27205;53.690;19.948;2023-03-21T14:55:14;99928.31;;;19.18;80.46
41467;BME280;27205;53.690;19.948;2023-03-21T15:00:27;99936.39;;;22.56;80.97
41467;BME280;27205;53.690;19.948;2023-03-21T15:05:33;99945.36;;;26.43;81.07
41467;BME280;27205;53.690;19.948;2023-03-21T15:10:40;99951.41;;;29.41;77.18
41467;BME280;27205;53.690;19.948;2023-03-21T15:15:44;99948.55;;;30.92;79.34
41467;BME280;27205;53.690;19.948;2023-03-21T15:20:49;99948.27;;;32.28;74.66
41467;BME280;27205;53.690;19.948;2023-03-21T15:25:53;99946.83;;;34.12;77.26
41467;BME280;27205;53.690;19.948;2023-03-21T15:30:57;99949.33;;;35.56;75.82
41467;BME280;27205;53.690;19.948;2023-03-21T15:36:08;99948.57;;;37.00;75.93
41467;BME280;27205;53.690;19.948;2023-03-21T15:51:40;99930.89;;;40.24;71.77
41467;BME280;27205;53.690;19.948;2023-03-21T15:56:43;99927.11;;;40.28;69.04
41467;BME280;27205;53.690;19.948;2023-03-21T16:01:53;99923.55;;;38.93;67.44
41467;BME280;27205;53.690;19.948;2023-03-21T16:07:00;99921.63;;;38.54;65.25
41467;BME280;27205;53.690;19.948;2023-03-21T16:12:12;99919.20;;;38.23;62.57
41467;BME280;27205;53.690;19.948;2023-03-21T16:17:35;99914.41;;;36.74;60.90
41467;BME280;27205;53.690;19.948;2023-03-21T16:22:39;99907.44;;;35.31;59.22
41467;BME280;27205;53.690;19.948;2023-03-21T16:27:44;99909.42;;;34.07;57.66
41467;BME280;27205;53.690;19.948;2023-03-21T16:32:48;99905.97;;;32.02;56.23
41467;BME280;27205;53.690;19.948;2023-03-21T16:37:52;99893.14;;;29.47;54.83
41467;BME280;27205;53.690;19.948;2023-03-21T16:42:56;99884.19;;;26.42;53.97
41467;BME280;27205;53.690;19.948;2023-03-21T16:47:59;99879.86;;;23.48;53.42
41467;BME280;27205;53.690;19.948;2023-03-21T16:53:03;99877.16;;;20.75;52.76
41467;BME280;27205;53.690;19.948;2023-03-21T16:58:06;99879.73;;;18.43;52.71
41467;BME280;27205;53.690;19.948;2023-03-21T17:03:13;99874.35;;;16.71;53.11
41467;BME280;27205;53.690;19.948;2023-03-21T17:08:18;99877.87;;;15.24;53.61
41467;BME280;27205;53.690;19.948;2023-03-21T17:13:22;99882.89;;;14.13;53.67
41467;BME280;27205;53.690;19.948;2023-03-21T17:18:25;99887.11;;;13.10;53.72
41467;BME280;27205;53.690;19.948;2023-03-21T17:23:28;99881.34;;;12.22;54.10
41467;BME280;27205;53.690;19.948;2023-03-21T17:28:32;99878.11;;;11.46;54.22
41467;BME280;27205;53.690;19.948;2023-03-21T17:33:35;99881.14;;;10.83;54.72
41467;BME280;27205;53.690;19.948;2023-03-21T17:38:39;99884.65;;;10.24;54.89
41467;BME280;27205;53.690;19.948;2023-03-21T17:43:43;99886.92;;;9.66;55.08
41467;BME280;27205;53.690;19.948;2023-03-21T17:48:46;99883.16;;;9.22;55.39
41467;BME280;27205;53.690;19.948;2023-03-21T17:53:50;99880.91;;;8.84;55.81
41467;BME280;27205;53.690;19.948;2023-03-21T17:58:54;99881.58;;;8.40;56.17
41467;BME280;27205;53.690;19.948;2023-03-21T18:03:58;99881.73;;;8.06;56.38
41467;BME280;27205;53.690;19.948;2023-03-21T18:09:05;99886.48;;;7.69;56.65
41467;BME280;27205;53.690;19.948;2023-03-21T18:14:13;99890.85;;;7.41;57.08
41467;BME280;27205;53.690;19.948;2023-03-21T18:19:20;99886.87;;;7.18;57.22
41467;BME280;27205;53.690;19.948;2023-03-21T18:24:24;99889.75;;;6.97;57.85
41467;BME280;27205;53.690;19.948;2023-03-21T18:29:27;99891.27;;;6.76;58.22
41467;BME280;27205;53.690;19.948;2023-03-21T18:34:52;99894.11;;;6.55;58.61
41467;BME280;27205;53.690;19.948;2023-03-21T18:39:57;99892.17;;;6.39;58.81
41467;BME280;27205;53.690;19.948;2023-03-21T18:45:01;99889.75;;;6.18;59.26
41467;BME280;27205;53.690;19.948;2023-03-21T18:50:06;99887.40;;;6.00;59.48
41467;BME280;27205;53.690;19.948;2023-03-21T18:55:17;99883.23;;;5.84;59.82
41467;BME280;27205;53.690;19.948;2023-03-21T19:00:21;99883.58;;;5.75;59.89
41467;BME280;27205;53.690;19.948;2023-03-21T19:05:25;99887.17;;;5.67;60.19
41467;BME280;27205;53.690;19.948;2023-03-21T19:10:29;99883.48;;;5.63;60.41
41467;BME280;27205;53.690;19.948;2023-03-21T19:15:33;99883.05;;;5.57;60.71
41467;BME280;27205;53.690;19.948;2023-03-21T19:20:41;99883.40;;;5.48;60.87
41467;BME280;27205;53.690;19.948;2023-03-21T19:25:45;99885.29;;;5.42;60.94
41467;BME280;27205;53.690;19.948;2023-03-21T19:30:49;99883.96;;;5.38;61.18
41467;BME280;27205;53.690;19.948;2023-03-21T19:35:53;99882.75;;;5.34;61.21
41467;BME280;27205;53.690;19.948;2023-03-21T19:41:15;99890.57;;;5.28;61.59
41467;BME280;27205;53.690;19.948;2023-03-21T19:46:18;99891.00;;;5.24;61.67
41467;BME280;27205;53.690;19.948;2023-03-21T19:51:25;99893.26;;;5.14;62.20
41467;BME280;27205;53.690;19.948;2023-03-21T19:56:32;99898.44;;;5.10;62.56
41467;BME280;27205;53.690;19.948;2023-03-21T20:01:36;99897.55;;;5.06;62.95
41467;BME280;27205;53.690;19.948;2023-03-21T20:06:40;99903.09;;;5.00;63.22
41467;BME280;27205;53.690;19.948;2023-03-21T20:11:43;99903.80;;;4.97;62.96
41467;BME280;27205;53.690;19.948;2023-03-21T20:16:47;99895.63;;;4.94;63.53
41467;BME280;27205;53.690;19.948;2023-03-21T20:21:51;99896.65;;;4.88;63.56
41467;BME280;27205;53.690;19.948;2023-03-21T20:27:02;99897.18;;;4.86;63.98
41467;BME280;27205;53.690;19.948;2023-03-21T20:32:06;99896.67;;;4.82;64.01
41467;BME280;27205;53.690;19.948;2023-03-21T20:37:10;99892.31;;;4.79;64.27
41467;BME280;27205;53.690;19.948;2023-03-21T20:42:14;99886.83;;;4.75;64.59
41467;BME280;27205;53.690;19.948;2023-03-21T20:47:18;99885.00;;;4.73;64.47
41467;BME280;27205;53.690;19.948;2023-03-21T20:52:22;99882.22;;;4.72;64.56
41467;BME280;27205;53.690;19.948;2023-03-21T20:57:47;99885.17;;;4.70;64.90
41467;BME280;27205;53.690;19.948;2023-03-21T21:02:50;99882.30;;;4.63;64.92
41467;BME280;27205;53.690;19.948;2023-03-21T21:07:53;99882.77;;;4.61;65.28
41467;BME280;27205;53.690;19.948;2023-03-21T21:12:57;99876.83;;;4.61;65.26
41467;BME280;27205;53.690;19.948;2023-03-21T21:18:00;99875.95;;;4.59;65.50
41467;BME280;27205;53.690;19.948;2023-03-21T21:23:09;99868.97;;;4.55;65.77
41467;BME280;27205;53.690;19.948;2023-03-21T21:28:15;99866.09;;;4.49;65.77
41467;BME280;27205;53.690;19.948;2023-03-21T21:33:21;99867.63;;;4.41;66.10
41467;BME280;27205;53.690;19.948;2023-03-21T21:38:24;99864.30;;;4.35;66.18
41467;BME280;27205;53.690;19.948;2023-03-21T21:43:29;99866.99;;;4.30;66.57
41467;BME280;27205;53.690;19.948;2023-03-21T21:48:33;99863.77;;;4.25;66.63
41467;BME280;27205;53.690;19.948;2023-03-21T21:53:36;99859.48;;;4.23;66.80
41467;BME280;27205;53.690;19.948;2023-03-21T21:58:40;99855.75;;;4.19;66.92
41467;BME280;27205;53.690;19.948;2023-03-21T22:03:50;99855.18;;;4.20;67.03
41467;BME280;27205;53.690;19.948;2023-03-21T22:08:53;99857.28;;;4.17;67.18
41467;BME280;27205;53.690;19.948;2023-03-21T22:13:59;99860.23;;;4.14;67.43
41467;BME280;27205;53.690;19.948;2023-03-21T22:19:02;99859.11;;;4.13;67.41
41467;BME280;27205;53.690;19.948;2023-03-21T22:24:06;99860.48;;;4.11;67.59
41467;BME280;27205;53.690;19.948;2023-03-21T22:29:10;99858.13;;;4.12;67.82
41467;BME280;27205;53.690;19.948;2023-03-21T22:34:14;99856.20;;;4.11;67.82
41467;BME280;27205;53.690;19.948;2023-03-21T22:39:18;99846.77;;;4.09;67.93
41467;BME280;27205;53.690;19.948;2023-03-21T22:44:26;99843.19;;;4.05;68.22
41467;BME280;27205;53.690;19.948;2023-03-21T22:49:37;99844.19;;;4.03;68.44
41467;BME280;27205;53.690;19.948;2023-03-21T22:54:41;99837.71;;;4.00;68.48
41467;BME280;27205;53.690;19.948;2023-03-21T22:59:44;99837.08;;;3.94;68.61
41467;BME280;27205;53.690;19.948;2023-03-21T23:04:48;99833.52;;;3.91;68.61
41467;BME280;27205;53.690;19.948;2023-03-21T23:09:51;99825.00;;;3.89;68.67
41467;BME280;27205;53.690;19.948;2023-03-21T23:14:55;99824.13;;;3.86;68.83
41467;BME280;27205;53.690;19.948;2023-03-21T23:19:59;99820.29;;;3.85;69.08
41467;BME280;27205;53.690;19.948;2023-03-21T23:25:03;99820.71;;;3.80;69.16
41467;BME280;27205;53.690;19.948;2023-03-21T23:30:07;99817.89;;;3.78;69.03
41467;BME280;27205;53.690;19.948;2023-03-21T23:35:11;99815.45;;;3.76;69.41
41467;BME280;27205;53.690;19.948;2023-03-21T23:40:15;99807.95;;;3.74;69.41
41467;BME280;27205;53.690;19.948;2023-03-21T23:45:18;99802.38;;;3.70;69.51
41467;BME280;27205;53.690;19.948;2023-03-21T23:50:22;99793.83;;;3.64;69.57
41467;BME280;27205;53.690;19.948;2023-03-21T23:55:25;99789.44;;;3.65;69.55
